Time;durP1;ratioP1;P1;durP2;ratioP2;P2;SDS_P1;SDS_P2;PMS_P1;PMS_P2;Temp;Humidity;BMP_temperature;BMP_pressure;BME280_temperature;BME280_humidity;BME280_pressure;Samples;Min_cycle;Max_cycle;Signal;HPM_P1;HPM_P2
2023/10/02 00:01:17;;;;;;;;;;;;;;;12.66;100.00;97221.56;5025532;28;19959;-74
2023/10/02 00:03:44;;;;;;;;;;;;;;;12.66;100.00;97219.75;5063296;28;19950;-74
2023/10/02 00:06:11;;;;;;;;;;;;;;;12.65;100.00;97223.38;5066781;28;19944;-75
2023/10/02 00:08:41;;;;;;;;;;;;;;;12.64;100.00;97229.69;5067286;28;19936;-74
2023/10/02 00:11:36;;;;;;;;;;;;;;;12.61;100.00;97216.94;5066322;28;19937;-75
2023/10/02 00:14:19;;;;;;;;;;;;;;;12.59;100.00;97211.06;5066659;28;19960;-74
2023/10/02 00:17:00;;;;;;;;;;;;;;;12.58;100.00;97220.00;5067094;28;20097;-74
2023/10/02 00:19:37;;;;;;;;;;;;;;;12.54;100.00;97216.97;5067064;28;20229;-74
2023/10/02 00:22:07;;;;;;;;;;;;;;;12.51;100.00;97212.13;5066401;28;19955;-74
2023/10/02 00:24:40;;;;;;;;;;;;;;;12.47;100.00;97210.94;5066424;28;19931;-74
2023/10/02 00:27:07;;;;;;;;;;;;;;;12.44;100.00;97205.28;5066367;28;20246;-74
2023/10/02 00:29:33;;;;;;;;;;;;;;;12.41;100.00;97208.34;5066037;28;19941;-74
2023/10/02 00:31:59;;;;;;;;;;;;;;;12.37;100.00;97205.34;5066807;28;19940;-74
2023/10/02 00:34:31;;;;;;;;;;;;;;;12.34;100.00;97214.44;5065131;28;20003;-74
2023/10/02 00:36:59;;;;;;;;;;;;;;;12.31;100.00;97206.19;5065859;28;19938;-74
2023/10/02 00:39:30;;;;;;;;;;;;;;;12.25;100.00;97210.44;5066079;28;19937;-74
2023/10/02 00:44:52;;;;;;;;;;;;;;;12.21;100.00;97200.56;5065014;28;19936;-74
2023/10/02 00:47:50;;;;;;;;;;;;;;;12.21;100.00;97203.19;5066195;28;19962;-75
2023/10/02 00:50:20;;;;;;;;;;;;;;;12.21;100.00;97205.81;5066759;28;20111;-74
2023/10/02 00:52:47;;;;;;;;;;;;;;;12.21;100.00;97200.56;5066712;28;19941;-74
2023/10/02 00:55:18;;;;;;;;;;;;;;;12.21;100.00;97197.94;5065837;28;19954;-74
2023/10/02 00:57:45;;;;;;;;;;;;;;;12.21;100.00;97197.94;5066368;28;19935;-74
2023/10/02 01:00:17;;;;;;;;;;;;;;;12.21;100.00;97198.72;5066474;28;19960;-74
2023/10/02 01:02:45;;;;;;;;;;;;;;;12.21;100.00;97206.63;5065780;28;19943;-74
2023/10/02 01:05:15;;;;;;;;;;;;;;;12.22;100.00;97204.78;5065815;28;20125;-74
2023/10/02 01:07:41;;;;;;;;;;;;;;;12.22;100.00;97205.63;5065576;28;19936;-74
2023/10/02 01:10:08;;;;;;;;;;;;;;;12.23;100.00;97201.16;5066118;28;19936;-74
2023/10/02 01:12:43;;;;;;;;;;;;;;;12.21;100.00;97198.72;5065506;28;19937;-74
2023/10/02 01:15:12;;;;;;;;;;;;;;;12.17;100.00;97195.69;5065996;28;19928;-74
2023/10/02 01:17:45;;;;;;;;;;;;;;;12.17;100.00;97197.53;5065410;28;19941;-74
2023/10/02 01:22:57;;;;;;;;;;;;;;;12.12;100.00;97195.53;5065885;28;19937;-73
2023/10/02 01:25:23;;;;;;;;;;;;;;;12.10;100.00;97199.38;5065271;28;19934;-74
2023/10/02 01:27:51;;;;;;;;;;;;;;;12.08;100.00;97198.78;5065184;28;19940;-73
2023/10/02 01:30:18;;;;;;;;;;;;;;;12.09;100.00;97193.31;5065121;28;19931;-74
2023/10/02 01:35:58;;;;;;;;;;;;;;;12.11;100.00;97186.00;5065033;28;19958;-74
2023/10/02 01:38:29;;;;;;;;;;;;;;;12.13;100.00;97191.88;5059985;28;19947;-74
2023/10/02 01:41:02;;;;;;;;;;;;;;;12.12;100.00;97190.28;5064847;28;20245;-74
2023/10/02 01:43:32;;;;;;;;;;;;;;;12.14;100.00;97185.63;5065471;28;20122;-74
2023/10/02 01:46:00;;;;;;;;;;;;;;;12.15;100.00;97200.34;5065681;28;19937;-74
2023/10/02 01:48:41;;;;;;;;;;;;;;;12.15;100.00;97191.66;5064620;28;19966;-74
2023/10/02 01:51:25;;;;;;;;;;;;;;;12.15;100.00;97192.47;5064844;28;19943;-74
2023/10/02 01:53:58;;;;;;;;;;;;;;;12.15;100.00;97184.59;5065572;28;19935;-73
2023/10/02 01:56:25;;;;;;;;;;;;;;;12.16;100.00;97182.78;5064679;28;19995;-74
2023/10/02 01:58:52;;;;;;;;;;;;;;;12.17;100.00;97182.56;5064934;28;19944;-74
2023/10/02 02:01:20;;;;;;;;;;;;;;;12.18;100.00;97170.22;5064900;28;20149;-73
2023/10/02 02:03:48;;;;;;;;;;;;;;;12.20;100.00;97162.94;5065092;28;19942;-73
2023/10/02 02:06:20;;;;;;;;;;;;;;;12.23;100.00;97164.34;5064472;28;20124;-74
2023/10/02 02:08:52;;;;;;;;;;;;;;;12.23;100.00;97162.50;5063403;28;19934;-74
2023/10/02 02:11:20;;;;;;;;;;;;;;;12.24;100.00;97166.75;5064449;28;19930;-74
2023/10/02 02:13:48;;;;;;;;;;;;;;;12.26;100.00;97164.69;5065159;28;19936;-74
2023/10/02 02:16:21;;;;;;;;;;;;;;;12.26;100.00;97156.81;5064357;28;20308;-74
2023/10/02 02:18:50;;;;;;;;;;;;;;;12.28;100.00;97156.59;5064894;28;20207;-73
2023/10/02 02:21:20;;;;;;;;;;;;;;;12.28;100.00;97153.97;5064134;28;20245;-74
2023/10/02 02:23:46;;;;;;;;;;;;;;;12.28;100.00;97161.88;5064251;28;19977;-73
2023/10/02 02:26:21;;;;;;;;;;;;;;;12.29;100.00;97152.97;5064168;28;19934;-74
2023/10/02 02:28:48;;;;;;;;;;;;;;;12.30;100.00;97154.56;5064208;28;19939;-73
2023/10/02 02:31:29;;;;;;;;;;;;;;;12.29;100.00;97151.16;5064071;28;19932;-74
2023/10/02 02:33:59;;;;;;;;;;;;;;;12.31;100.00;97156.22;5064599;28;19928;-74
2023/10/02 02:36:28;;;;;;;;;;;;;;;12.30;100.00;97152.75;5064798;28;19936;-74
2023/10/02 02:41:39;;;;;;;;;;;;;;;12.30;100.00;97150.13;5064701;28;20131;-74
2023/10/02 02:44:05;;;;;;;;;;;;;;;12.28;100.00;97154.78;5063451;28;19941;-74
2023/10/02 02:46:32;;;;;;;;;;;;;;;12.28;100.00;97153.97;5063415;28;19960;-74
2023/10/02 02:49:00;;;;;;;;;;;;;;;12.27;100.00;97149.75;5063973;28;20131;-74
2023/10/02 02:51:26;;;;;;;;;;;;;;;12.27;100.00;97150.56;5063854;28;19938;-74
2023/10/02 02:53:52;;;;;;;;;;;;;;;12.26;100.00;97148.91;5063890;28;19957;-74
2023/10/02 02:56:23;;;;;;;;;;;;;;;12.25;100.00;97149.16;5063770;28;20233;-74
2023/10/02 02:58:55;;;;;;;;;;;;;;;12.22;100.00;97142.50;5063833;28;19957;-74
2023/10/02 03:01:29;;;;;;;;;;;;;;;12.21;100.00;97140.06;5062500;28;19953;-74
2023/10/02 03:03:56;;;;;;;;;;;;;;;12.20;100.00;97144.53;5063765;28;19949;-74
2023/10/02 03:06:22;;;;;;;;;;;;;;;12.18;100.00;97142.09;5063609;28;19938;-74
2023/10/02 03:08:51;;;;;;;;;;;;;;;12.18;100.00;97144.75;5064540;28;19935;-74
2023/10/02 03:11:22;;;;;;;;;;;;;;;12.17;100.00;97140.47;5063910;28;19943;-74
2023/10/02 03:13:50;;;;;;;;;;;;;;;12.16;100.00;97141.50;5064195;28;20092;-73
2023/10/02 03:16:18;;;;;;;;;;;;;;;12.15;100.00;97137.25;5063658;28;19930;-75
2023/10/02 03:18:48;;;;;;;;;;;;;;;12.13;100.00;97138.50;5064173;28;19936;-73
2023/10/02 03:21:21;;;;;;;;;;;;;;;12.11;100.00;97137.88;5063504;28;20161;-74
2023/10/02 03:23:48;;;;;;;;;;;;;;;12.09;100.00;97135.47;5064087;28;19938;-74
2023/10/02 03:26:27;;;;;;;;;;;;;;;12.08;100.00;97138.31;5063563;28;20224;-74
2023/10/02 03:29:02;;;;;;;;;;;;;;;12.06;100.00;97137.72;5063859;28;19935;-74
2023/10/02 03:31:34;;;;;;;;;;;;;;;12.04;100.00;97129.25;5063758;28;20213;-74
2023/10/02 03:36:54;;;;;;;;;;;;;;;12.02;100.00;97136.53;5063492;28;19937;-74
2023/10/02 03:39:23;;;;;;;;;;;;;;;12.00;100.00;97128.84;5063965;28;19942;-73
2023/10/02 03:41:55;;;;;;;;;;;;;;;11.99;100.00;97132.50;5063369;28;19951;-74
2023/10/02 03:44:22;;;;;;;;;;;;;;;11.98;100.00;97134.31;5063416;28;19931;-74
2023/10/02 03:46:48;;;;;;;;;;;;;;;11.99;100.00;97137.75;5063532;28;19971;-74
2023/10/02 03:49:18;;;;;;;;;;;;;;;11.96;100.00;97141.59;5063946;28;19957;-74
2023/10/02 03:51:44;;;;;;;;;;;;;;;11.93;100.00;97130.72;5064115;28;19935;-74
2023/10/02 03:54:18;;;;;;;;;;;;;;;11.91;100.00;97136.16;5063288;28;19936;-76
2023/10/02 03:56:50;;;;;;;;;;;;;;;11.90;100.00;97129.28;5066104;28;20189;-74
2023/10/02 03:59:17;;;;;;;;;;;;;;;11.91;100.00;97128.28;5066900;28;19931;-74
2023/10/02 04:01:43;;;;;;;;;;;;;;;11.92;100.00;97121.19;5066876;28;19949;-74
2023/10/02 04:06:43;;;;;;;;;;;;;;;11.92;100.00;97122.00;5067357;28;19935;-74
2023/10/02 04:11:42;;;;;;;;;;;;;;;11.93;100.00;97128.88;5066675;28;19936;-74
2023/10/02 04:14:17;;;;;;;;;;;;;;;11.94;100.00;97124.44;5066669;28;19939;-74
2023/10/02 04:16:43;;;;;;;;;;;;;;;11.95;100.00;97126.06;5066665;28;19935;-74
2023/10/02 04:19:09;;;;;;;;;;;;;;;11.94;100.00;97127.06;5066549;28;19946;-74
2023/10/02 04:21:36;;;;;;;;;;;;;;;11.92;100.00;97132.50;5066413;28;19952;-74
2023/10/02 04:24:09;;;;;;;;;;;;;;;11.92;100.00;97132.50;5066485;28;19939;-74
2023/10/02 04:26:36;;;;;;;;;;;;;;;11.90;100.00;97124.03;5066950;28;19939;-74
2023/10/02 04:32:04;;;;;;;;;;;;;;;11.90;100.00;97131.13;5066900;28;19940;-74
2023/10/02 04:34:31;;;;;;;;;;;;;;;11.87;100.00;97129.69;5066798;28;20242;-74
2023/10/02 04:36:57;;;;;;;;;;;;;;;11.85;100.00;97131.72;5066812;28;20030;-74
2023/10/02 04:45:20;;;;;;;;;;;;;;;11.76;100.00;97132.97;5008215;28;19938;-74
2023/10/02 04:47:48;;;;;;;;;;;;;;;11.74;100.00;97143.69;5024588;28;19964;-74
2023/10/02 04:53:04;;;;;;;;;;;;;;;11.69;100.00;97153.19;5065775;28;20204;-74
2023/10/02 04:55:42;;;;;;;;;;;;;;;11.64;100.00;97145.94;5066127;28;19953;-73
2023/10/02 04:58:17;;;;;;;;;;;;;;;11.62;100.00;97142.72;5065577;28;20123;-74
2023/10/02 05:03:49;;;;;;;;;;;;;;;11.54;100.00;97150.81;5065895;28;19931;-73
2023/10/02 05:06:39;;;;;;;;;;;;;;;11.52;100.00;97143.13;5065078;28;19959;-74
2023/10/02 05:11:50;;;;;;;;;;;;;;;11.50;100.00;97147.00;5065498;28;20237;-74
2023/10/02 05:14:29;;;;;;;;;;;;;;;11.49;100.00;97148.81;5065822;28;19935;-74
2023/10/02 05:22:27;;;;;;;;;;;;;;;11.45;100.00;97152.06;5065857;28;19950;-74
2023/10/02 05:24:58;;;;;;;;;;;;;;;11.42;100.00;97157.72;5065346;28;19938;-74
2023/10/02 05:27:29;;;;;;;;;;;;;;;11.39;100.00;97153.69;5065523;28;19934;-73
2023/10/02 05:29:58;;;;;;;;;;;;;;;11.37;100.00;97153.09;5065748;28;19929;-74
2023/10/02 05:32:29;;;;;;;;;;;;;;;11.36;100.00;97162.00;5065633;28;19943;-74
2023/10/02 05:37:42;;;;;;;;;;;;;;;11.31;100.00;97173.09;5065930;28;20201;-74
2023/10/02 05:42:53;;;;;;;;;;;;;;;11.27;100.00;97166.63;5065475;28;19995;-74
2023/10/02 05:45:37;;;;;;;;;;;;;;;11.26;100.00;97170.28;5065519;28;19936;-74
2023/10/02 05:48:07;;;;;;;;;;;;;;;11.27;100.00;97165.81;5064763;28;19968;-73
2023/10/02 05:50:34;;;;;;;;;;;;;;;11.28;100.00;97170.06;5065075;28;20117;-74
2023/10/02 05:52:59;;;;;;;;;;;;;;;11.29;100.00;97171.69;5064822;28;20252;-74
2023/10/02 05:55:25;;;;;;;;;;;;;;;11.31;100.00;97173.09;5064402;28;19944;-74
2023/10/02 05:57:54;;;;;;;;;;;;;;;11.43;100.00;97183.78;5064666;28;19941;-74
2023/10/02 06:00:20;;;;;;;;;;;;;;;11.64;100.00;97184.56;5064690;28;19958;-74
2023/10/02 06:02:58;;;;;;;;;;;;;;;11.87;100.00;97179.63;5065319;28;19956;-74
2023/10/02 06:05:24;;;;;;;;;;;;;;;12.16;100.00;97173.06;5064564;28;19934;-74
2023/10/02 06:07:51;;;;;;;;;;;;;;;12.42;100.00;97178.41;5064485;28;19937;-74
2023/10/02 06:10:26;;;;;;;;;;;;;;;12.69;100.00;97179.84;5065185;28;20032;-75
2023/10/02 06:13:02;;;;;;;;;;;;;;;13.02;100.00;97168.25;5065005;28;19941;-74
2023/10/02 06:15:46;;;;;;;;;;;;;;;13.41;100.00;97168.94;5046777;28;19945;-74
2023/10/02 06:18:24;;;;;;;;;;;;;;;13.78;100.00;97161.84;5065019;28;19939;-74
2023/10/02 06:21:00;;;;;;;;;;;;;;;14.12;100.00;97153.56;5064229;28;19938;-74
2023/10/02 06:23:29;;;;;;;;;;;;;;;14.34;100.00;97148.56;5065021;28;19942;-74
2023/10/02 06:25:58;;;;;;;;;;;;;;;14.50;100.00;97137.38;5064153;28;19939;-73
2023/10/02 06:28:27;;;;;;;;;;;;;;;14.70;100.00;97136.31;5064867;28;20218;-74
2023/10/02 06:30:54;;;;;;;;;;;;;;;14.75;100.00;97131.97;5064878;28;19932;-74
2023/10/02 06:33:21;;;;;;;;;;;;;;;14.82;100.00;97137.13;5064004;28;20226;-74
2023/10/02 06:35:57;;;;;;;;;;;;;;;14.88;100.00;97133.59;5063938;28;19956;-74
2023/10/02 06:38:23;;;;;;;;;;;;;;;14.88;100.00;97133.59;5063986;28;19935;-74
2023/10/02 06:40:58;;;;;;;;;;;;;;;14.97;100.00;97136.69;5063933;28;19935;-74
2023/10/02 06:43:30;;;;;;;;;;;;;;;15.09;100.00;97137.50;5064780;28;19956;-74
2023/10/02 06:46:13;;;;;;;;;;;;;;;15.18;100.00;97136.13;5063845;28;19935;-73
2023/10/02 06:48:43;;;;;;;;;;;;;;;15.26;100.00;97137.63;5064378;28;19942;-74
2023/10/02 06:51:13;;;;;;;;;;;;;;;15.30;100.00;97140.59;5063823;28;19946;-74
2023/10/02 06:53:40;;;;;;;;;;;;;;;15.35;100.00;97135.41;5064576;28;20238;-74
2023/10/02 06:56:07;;;;;;;;;;;;;;;15.38;100.00;97134.97;5063483;28;20101;-74
2023/10/02 06:58:46;;;;;;;;;;;;;;;15.40;100.00;97135.53;5063334;28;20123;-74
2023/10/02 07:01:13;;;;;;;;;;;;;;;15.38;100.00;97138.41;5063699;28;19936;-75
2023/10/02 07:03:39;;;;;;;;;;;;;;;15.43;100.00;97140.34;5064767;28;19934;-74
2023/10/02 07:06:07;;;;;;;;;;;;;;;15.43;100.00;97135.06;5064468;28;20224;-74
2023/10/02 07:08:36;;;;;;;;;;;;;;;15.47;100.00;97144.16;5063678;28;19938;-74
2023/10/02 07:11:10;;;;;;;;;;;;;;;15.53;100.00;97130.00;5064327;28;20105;-74
2023/10/02 07:13:50;;;;;;;;;;;;;;;15.56;100.00;97128.72;5063692;28;20214;-74
2023/10/02 07:16:17;;;;;;;;;;;;;;;15.58;100.00;97138.06;5063606;28;19936;-75
2023/10/02 07:18:49;;;;;;;;;;;;;;;15.60;100.00;97143.91;5063551;28;19940;-74
2023/10/02 07:21:19;;;;;;;;;;;;;;;15.65;100.00;97139.78;5063709;28;20102;-75
2023/10/02 07:23:45;;;;;;;;;;;;;;;15.65;100.00;97137.13;5064298;28;19938;-74
2023/10/02 07:26:19;;;;;;;;;;;;;;;15.58;100.00;97148.63;5063516;28;20012;-74
2023/10/02 07:28:51;;;;;;;;;;;;;;;15.61;100.00;97152.66;5062727;28;19942;-74
2023/10/02 07:31:18;;;;;;;;;;;;;;;15.70;100.00;97155.72;5065380;28;19939;-74
2023/10/02 07:33:44;;;;;;;;;;;;;;;15.78;100.00;97158.84;5067960;28;19949;-74
2023/10/02 07:36:14;;;;;;;;;;;;;;;15.83;100.00;97145.75;5067327;28;19953;-75
2023/10/02 07:38:42;;;;;;;;;;;;;;;15.90;100.00;97145.59;5067298;28;19932;-74
2023/10/02 07:41:23;;;;;;;;;;;;;;;16.01;100.00;97139.47;5067182;28;19934;-74
2023/10/02 07:43:53;;;;;;;;;;;;;;;16.09;100.00;97134.84;5066938;28;19948;-73
2023/10/02 07:46:21;;;;;;;;;;;;;;;16.15;100.00;97142.66;5067496;28;19944;-74
2023/10/02 07:49:04;;;;;;;;;;;;;;;16.17;100.00;97132.63;5067721;28;19935;-73
2023/10/02 07:51:35;;;;;;;;;;;;;;;16.19;100.00;97142.94;5066747;28;20200;-73
2023/10/02 07:54:01;;;;;;;;;;;;;;;16.21;100.00;97123.19;5067312;28;19944;-74
2023/10/02 07:56:29;;;;;;;;;;;;;;;16.23;100.00;97118.44;5066981;28;19926;-74
2023/10/02 07:58:55;;;;;;;;;;;;;;;16.33;100.00;97120.47;5066898;28;19939;-74
2023/10/02 08:01:23;;;;;;;;;;;;;;;16.47;100.00;97128.13;5066853;28;20176;-74
2023/10/02 08:03:49;;;;;;;;;;;;;;;16.60;100.00;97117.22;5066952;28;20244;-73
2023/10/02 08:11:49;;;;;;;;;;;;;;;16.80;100.00;97109.63;5067454;28;20207;-73
2023/10/02 08:17:27;;;;;;;;;;;;;;;17.04;100.00;97115.53;5066657;28;19939;-73
2023/10/02 08:19:58;;;;;;;;;;;;;;;17.16;100.00;97109.38;5067380;28;19936;-74
2023/10/02 08:22:25;;;;;;;;;;;;;;;17.17;99.28;97111.75;5066592;28;19953;-74
2023/10/02 08:24:52;;;;;;;;;;;;;;;17.22;99.92;97105.75;5066414;28;20191;-74
2023/10/02 08:27:18;;;;;;;;;;;;;;;17.25;99.71;97110.53;5066311;28;20102;-74
2023/10/02 08:29:44;;;;;;;;;;;;;;;17.27;100.00;97116.41;5066319;28;20133;-74
2023/10/02 08:32:10;;;;;;;;;;;;;;;17.31;100.00;97114.88;5066811;28;19937;-74
2023/10/02 08:34:36;;;;;;;;;;;;;;;17.30;100.00;97121.22;5066516;28;20256;-73
2023/10/02 08:37:07;;;;;;;;;;;;;;;17.35;100.00;97120.50;5066153;28;19937;-73
2023/10/02 08:39:33;;;;;;;;;;;;;;;17.39;100.00;97134.88;5066921;28;19935;-75
2023/10/02 08:41:59;;;;;;;;;;;;;;;17.40;100.00;97117.91;5066203;28;19953;-74
2023/10/02 08:44:25;;;;;;;;;;;;;;;17.41;100.00;97114.22;5065519;28;19931;-74
2023/10/02 08:46:55;;;;;;;;;;;;;;;17.41;100.00;97122.19;5065876;28;20266;-74
2023/10/02 08:49:25;;;;;;;;;;;;;;;17.40;100.00;97124.00;5066522;28;19948;-73
2023/10/02 08:51:51;;;;;;;;;;;;;;;17.40;100.00;97124.00;5065935;28;19931;-74
2023/10/02 08:54:18;;;;;;;;;;;;;;;17.45;100.00;97129.38;5065870;28;19933;-74
2023/10/02 08:56:44;;;;;;;;;;;;;;;17.49;100.00;97127.06;5065872;28;19984;-74
2023/10/02 08:59:15;;;;;;;;;;;;;;;17.56;100.00;97127.66;5066578;28;19946;-74
2023/10/02 09:01:44;;;;;;;;;;;;;;;17.63;100.00;97115.00;5065672;28;19947;-74
2023/10/02 09:04:23;;;;;;;;;;;;;;;17.68;100.00;97108.19;5065685;28;20130;-74
2023/10/02 09:06:49;;;;;;;;;;;;;;;17.78;100.00;97101.13;5066249;28;19947;-74
2023/10/02 09:12:13;;;;;;;;;;;;;;;17.97;100.00;97101.63;5034686;28;19937;-73
2023/10/02 09:14:40;;;;;;;;;;;;;;;18.05;100.00;97116.31;5066283;28;19934;-74
2023/10/02 09:19:39;;;;;;;;;;;;;;;18.28;100.00;97090.53;5066258;28;20228;-74
2023/10/02 09:22:12;;;;;;;;;;;;;;;18.37;100.00;97094.34;5065818;28;19955;-74
2023/10/02 09:24:40;;;;;;;;;;;;;;;18.44;99.35;97082.47;5065904;28;20110;-73
2023/10/02 09:27:30;;;;;;;;;;;;;;;18.53;100.00;97092.63;5065357;28;19943;-74
2023/10/02 09:30:19;;;;;;;;;;;;;;;18.64;98.34;97070.41;5065874;28;19943;-74
2023/10/02 09:32:52;;;;;;;;;;;;;;;18.70;100.00;97073.91;5065323;28;19934;-73
2023/10/02 09:35:23;;;;;;;;;;;;;;;18.79;98.80;97064.44;5064160;28;19955;-74
2023/10/02 09:37:56;;;;;;;;;;;;;;;18.87;100.00;97074.59;5065690;28;19948;-74
2023/10/02 09:40:26;;;;;;;;;;;;;;;18.96;98.21;97056.28;5065625;28;19934;-74
2023/10/02 09:43:00;;;;;;;;;;;;;;;19.06;100.00;97073.09;5064913;28;20268;-75
2023/10/02 09:45:37;;;;;;;;;;;;;;;19.19;98.52;97057.75;5065761;28;19934;-73
2023/10/02 09:48:05;;;;;;;;;;;;;;;19.29;100.00;97065.00;5064841;28;20113;-73
2023/10/02 09:50:34;;;;;;;;;;;;;;;19.35;99.65;97061.31;5064831;28;19935;-73
2023/10/02 09:53:08;;;;;;;;;;;;;;;19.39;98.59;97049.88;5065312;28;19941;-74
2023/10/02 09:55:37;;;;;;;;;;;;;;;19.47;98.00;97049.41;5064481;28;19948;-74
2023/10/02 09:58:05;;;;;;;;;;;;;;;19.58;99.19;97057.41;5064709;28;20106;-73
2023/10/02 10:00:36;;;;;;;;;;;;;;;19.63;97.32;97036.13;5065449;28;19945;-73
2023/10/02 10:03:23;;;;;;;;;;;;;;;19.72;98.19;97037.28;5064581;28;20269;-73
2023/10/02 10:06:08;;;;;;;;;;;;;;;19.82;98.37;97044.47;5064603;28;19939;-73
2023/10/02 10:09:18;;;;;;;;;;;;;;;19.91;97.26;97032.25;5065278;28;19941;-75
2023/10/02 10:11:42;;;;;;;;;;;;;;;20.00;97.22;97027.22;5064919;28;19938;-74
2023/10/02 10:14:35;;;;;;;;;;;;;;;20.07;95.82;97011.78;5064427;28;19940;-74
2023/10/02 10:17:15;;;;;;;;;;;;;;;20.14;96.99;97022.97;5064924;28;20119;-74
2023/10/02 10:20:18;;;;;;;;;;;;;;;20.21;94.34;97012.06;5064538;28;19952;-74
2023/10/02 10:22:56;;;;;;;;;;;;;;;20.29;93.56;96992.88;5064047;28;19952;-74
2023/10/02 10:25:22;;;;;;;;;;;;;;;20.37;92.70;96984.38;5064411;28;19945;-74
2023/10/02 10:27:54;;;;;;;;;;;;;;;20.46;94.47;97001.41;5064119;28;20213;-72
2023/10/02 10:30:24;;;;;;;;;;;;;;;20.58;90.68;96971.84;5064945;28;19932;-73
2023/10/02 10:35:35;;;;;;;;;;;;;;;20.75;92.83;96981.41;5064283;28;19945;-74
2023/10/02 10:38:07;;;;;;;;;;;;;;;20.86;92.60;96977.66;5064843;28;19936;-74
2023/10/02 10:40:50;;;;;;;;;;;;;;;20.98;90.30;96958.69;5064050;28;19960;-73
2023/10/02 10:43:16;;;;;;;;;;;;;;;21.09;91.29;96970.91;5063968;28;19952;-75
2023/10/02 10:45:44;;;;;;;;;;;;;;;21.22;90.55;96962.31;5046295;28;19945;-75
2023/10/02 10:48:22;;;;;;;;;;;;;;;21.37;90.37;96966.00;5063812;28;19964;-74
2023/10/02 10:50:59;;;;;;;;;;;;;;;21.54;90.05;96963.00;5064706;28;19943;-75
2023/10/02 10:53:28;;;;;;;;;;;;;;;21.67;87.78;96949.03;5063893;28;19936;-75
2023/10/02 10:55:59;;;;;;;;;;;;;;;21.84;87.41;96941.47;5063871;28;19943;-75
2023/10/02 10:58:31;;;;;;;;;;;;;;;22.02;86.08;96934.63;5064667;28;20215;-74
2023/10/02 11:00:58;;;;;;;;;;;;;;;22.23;83.71;96921.94;5063576;28;19940;-75
2023/10/02 11:03:26;;;;;;;;;;;;;;;22.43;84.53;96933.53;5063657;28;19951;-75
2023/10/02 11:05:58;;;;;;;;;;;;;;;22.61;82.07;96935.44;5065083;28;19965;-75
2023/10/02 11:08:24;;;;;;;;;;;;;;;22.76;78.19;96955.88;5068434;28;19935;-75
2023/10/02 11:11:00;;;;;;;;;;;;;;;22.92;83.99;96985.16;5067941;28;19989;-75
2023/10/02 11:13:27;;;;;;;;;;;;;;;23.12;84.34;96984.16;5068597;28;19941;-74
2023/10/02 11:15:59;;;;;;;;;;;;;;;23.28;81.96;96972.97;5067838;28;20242;-74
2023/10/02 11:18:26;;;;;;;;;;;;;;;23.45;78.38;96972.50;5066678;28;19946;-74
2023/10/02 11:20:57;;;;;;;;;;;;;;;23.57;79.09;96977.44;5068349;28;19934;-74
2023/10/02 11:23:37;;;;;;;;;;;;;;;23.69;77.39;96977.81;5068390;28;19956;-74
2023/10/02 11:26:11;;;;;;;;;;;;;;;23.87;80.44;96991.50;5068407;28;20204;-73
2023/10/02 11:28:37;;;;;;;;;;;;;;;24.03;76.70;96967.97;5068383;28;19937;-75
2023/10/02 11:31:12;;;;;;;;;;;;;;;24.15;74.40;96973.69;5067796;28;19960;-74
2023/10/02 11:33:40;;;;;;;;;;;;;;;24.31;74.20;96974.22;5067435;28;20123;-79
2023/10/02 11:36:11;;;;;;;;;;;;;;;24.46;77.85;96984.69;5067438;28;19955;-78
2023/10/02 11:38:38;;;;;;;;;;;;;;;24.63;75.58;96972.63;5067361;28;19925;-79
2023/10/02 11:41:04;;;;;;;;;;;;;;;24.79;72.96;96960.53;5067374;28;19927;-79
2023/10/02 11:43:34;;;;;;;;;;;;;;;24.91;70.12;96950.09;5067279;28;19954;-78
2023/10/02 11:45:59;;;;;;;;;;;;;;;25.01;73.17;96957.16;5067238;28;19934;-79
2023/10/02 11:48:25;;;;;;;;;;;;;;;25.10;73.55;96970.66;5066013;28;19966;-77
2023/10/02 11:50:51;;;;;;;;;;;;;;;25.15;71.08;96961.72;5067722;28;19948;-77
2023/10/02 11:53:18;;;;;;;;;;;;;;;25.17;70.33;96973.75;5067104;28;19939;-76
2023/10/02 11:55:44;;;;;;;;;;;;;;;25.19;68.46;96966.19;5066661;28;19950;-77
2023/10/02 11:58:10;;;;;;;;;;;;;;;25.25;72.69;96970.38;5067017;28;20022;-77
2023/10/02 12:00:36;;;;;;;;;;;;;;;25.33;71.72;96954.69;5067719;28;19934;-77
2023/10/02 12:03:02;;;;;;;;;;;;;;;25.40;72.88;96952.38;5066876;28;20244;-78
2023/10/02 12:05:30;;;;;;;;;;;;;;;25.42;68.20;96945.59;5066824;28;20138;-76
2023/10/02 12:07:59;;;;;;;;;;;;;;;25.45;70.71;96949.56;5067346;28;19935;-77
2023/10/02 12:10:27;;;;;;;;;;;;;;;25.49;69.49;96943.31;5066745;28;20122;-77
2023/10/02 12:12:52;;;;;;;;;;;;;;;25.55;72.65;96943.97;5067506;28;19941;-77
2023/10/02 12:15:19;;;;;;;;;;;;;;;25.58;68.21;96931.84;5066937;28;19932;-77
2023/10/02 12:17:47;;;;;;;;;;;;;;;25.60;67.23;96924.25;5066836;28;20135;-77
2023/10/02 12:20:16;;;;;;;;;;;;;;;25.64;68.67;96930.63;5066589;28;19935;-77
2023/10/02 12:22:46;;;;;;;;;;;;;;;25.70;66.94;96935.59;5066473;28;19955;-77
2023/10/02 12:25:12;;;;;;;;;;;;;;;25.79;68.14;96927.59;5066464;28;19938;-77
2023/10/02 12:27:40;;;;;;;;;;;;;;;25.89;66.74;96913.13;5066909;28;19942;-78
2023/10/02 12:30:11;;;;;;;;;;;;;;;25.97;67.30;96923.16;5066450;28;19948;-77
2023/10/02 12:32:40;;;;;;;;;;;;;;;26.07;69.30;96917.53;5066309;28;19937;-78
2023/10/02 12:35:06;;;;;;;;;;;;;;;26.22;66.92;96913.66;5066866;28;19996;-77
2023/10/02 12:37:32;;;;;;;;;;;;;;;26.31;63.88;96919.91;5066543;28;19957;-76
2023/10/02 12:39:58;;;;;;;;;;;;;;;26.32;63.96;96910.72;5066191;28;20216;-77
2023/10/02 12:42:25;;;;;;;;;;;;;;;26.38;61.51;96905.22;5066048;28;19940;-75
2023/10/02 12:44:53;;;;;;;;;;;;;;;26.46;65.36;96909.88;5066137;28;19940;-77
2023/10/02 12:47:19;;;;;;;;;;;;;;;26.53;64.40;96900.22;5065839;28;19968;-78
2023/10/02 12:49:45;;;;;;;;;;;;;;;26.66;63.88;96900.47;5065999;28;19951;-77
2023/10/02 12:52:11;;;;;;;;;;;;;;;26.77;64.82;96899.06;5065630;28;19942;-77
2023/10/02 12:54:37;;;;;;;;;;;;;;;26.88;60.74;96886.94;5065885;28;19938;-77
2023/10/02 12:57:05;;;;;;;;;;;;;;;26.99;60.51;96890.13;5066700;28;19934;-77
2023/10/02 12:59:30;;;;;;;;;;;;;;;27.01;63.68;96893.28;5065892;28;19938;-77
2023/10/02 13:01:57;;;;;;;;;;;;;;;27.05;57.70;96877.31;5065160;28;19931;-77
2023/10/02 13:04:23;;;;;;;;;;;;;;;27.02;56.04;96875.22;5065649;28;19949;-77
2023/10/02 13:06:49;;;;;;;;;;;;;;;27.03;60.81;96882.22;5065828;28;19936;-77
2023/10/02 13:09:15;;;;;;;;;;;;;;;27.09;55.62;96865.59;5066345;28;19934;-77
2023/10/02 13:11:44;;;;;;;;;;;;;;;27.18;58.88;96873.69;5066289;28;20100;-74
2023/10/02 13:14:16;;;;;;;;;;;;;;;27.22;58.96;96874.66;5065673;28;20121;-74
2023/10/02 13:16:42;;;;;;;;;;;;;;;27.30;59.29;96871.19;5065888;28;20236;-74
2023/10/02 13:19:12;;;;;;;;;;;;;;;27.36;56.86;96871.03;5066364;28;19987;-73
2023/10/02 13:21:41;;;;;;;;;;;;;;;27.44;59.32;96871.03;5065380;28;19937;-75
2023/10/02 13:24:13;;;;;;;;;;;;;;;27.51;60.29;96865.97;5064990;28;19954;-74
2023/10/02 13:26:39;;;;;;;;;;;;;;;27.53;55.49;96866.44;5048364;28;19935;-74
2023/10/02 13:29:05;;;;;;;;;;;;;;;27.45;53.72;96861.84;5065163;28;20129;-74
2023/10/02 13:31:32;;;;;;;;;;;;;;;27.47;57.84;96856.16;5065759;28;19938;-74
2023/10/02 13:33:57;;;;;;;;;;;;;;;27.48;51.58;96849.63;5065260;28;20191;-74
2023/10/02 13:36:24;;;;;;;;;;;;;;;27.50;55.36;96863.59;5065786;28;19974;-74
2023/10/02 13:38:51;;;;;;;;;;;;;;;27.56;57.07;96865.00;5065207;28;19934;-72
2023/10/02 13:41:17;;;;;;;;;;;;;;;27.61;56.57;96859.44;5065123;28;19936;-77
2023/10/02 13:43:45;;;;;;;;;;;;;;;27.62;55.79;96850.28;5065042;28;19956;-77
2023/10/02 13:46:11;;;;;;;;;;;;;;;27.64;53.76;96856.13;5065649;28;20106;-77
2023/10/02 13:48:37;;;;;;;;;;;;;;;27.68;54.86;96851.69;5064995;28;19944;-77
2023/10/02 13:51:04;;;;;;;;;;;;;;;27.71;55.44;96855.66;5065456;28;19933;-78
2023/10/02 13:53:30;;;;;;;;;;;;;;;27.68;52.13;96849.00;5064936;28;19941;-78
2023/10/02 13:56:08;;;;;;;;;;;;;;;27.65;54.47;96846.94;5080468;28;19937;-79
2023/10/02 13:58:50;;;;;;;;;;;;;;;27.65;52.74;96849.63;5064089;28;20112;-79
2023/10/02 14:01:19;;;;;;;;;;;;;;;27.66;50.86;96842.34;5065594;28;20104;-78